Time;durP1;ratioP1;P1;durP2;ratioP2;P2;SDS_P1;SDS_P2;PMS_P1;PMS_P2;Temp;Humidity;BMP_temperature;BMP_pressure;BME280_temperature;BME280_humidity;BME280_pressure;Samples;Min_cycle;Max_cycle;Signal;HPM_P1;HPM_P2
2022/12/06 00:01:40;;;;;;;12.70;7.20;;;;;;;-1.98;98.56;102125.33;107685;1264;59889;-74
2022/12/06 00:04:14;;;;;;;11.90;6.70;;;;;;;-1.93;98.89;102128.58;107592;1273;69832;-72
2022/12/06 00:06:46;;;;;;;10.30;6.70;;;;;;;-2.02;97.52;102125.82;107768;1261;70237;-72
2022/12/06 00:09:22;;;;;;;10.50;5.50;;;;;;;-1.94;99.16;102127.89;107611;1264;67095;-72
2022/12/06 00:11:52;;;;;;;11.00;6.80;;;;;;;-1.96;99.24;102126.35;107678;1265;72982;-70
2022/12/06 00:14:21;;;;;;;12.50;7.90;;;;;;;-1.89;99.34;102124.81;107596;1270;62524;-74
2022/12/06 00:16:50;;;;;;;9.70;6.10;;;;;;;-1.89;98.52;102118.84;107594;1269;61085;-74
2022/12/06 00:19:22;;;;;;;10.70;6.70;;;;;;;-1.86;97.86;102118.68;107679;1262;72314;-74
2022/12/06 00:21:50;;;;;;;9.90;6.70;;;;;;;-1.86;99.01;102115.27;107756;1263;71201;-73
2022/12/06 00:24:21;;;;;;;12.20;7.70;;;;;;;-2.00;98.01;102109.63;107740;1263;68857;-74
2022/12/06 00:26:50;;;;;;;9.70;6.80;;;;;;;-1.93;98.59;102110.48;107539;1258;71856;-74
2022/12/06 00:29:22;;;;;;;11.60;6.70;;;;;;;-1.91;99.44;102107.73;107653;1266;58471;-74
2022/12/06 00:31:51;;;;;;;13.30;7.00;;;;;;;-1.94;98.09;102100.40;107667;1266;59656;-74
2022/12/06 00:34:20;;;;;;;10.60;6.80;;;;;;;-1.93;98.68;102104.33;107725;1260;74323;-75
2022/12/06 00:36:48;;;;;;;9.40;7.20;;;;;;;-1.95;98.04;102103.30;107829;1269;72583;-74
2022/12/06 00:39:18;;;;;;;10.70;5.80;;;;;;;-2.01;99.08;102098.86;107726;1258;69053;-74
2022/12/06 00:41:46;;;;;;;13.00;7.90;;;;;;;-2.03;98.48;102097.30;107517;1263;72540;-72
2022/12/06 00:44:15;;;;;;;11.80;7.20;;;;;;;-1.87;100.00;102090.50;107717;1260;59638;-72
2022/12/06 00:46:43;;;;;;;15.20;6.70;;;;;;;-1.97;98.88;102093.39;107811;1261;61911;-74
2022/12/06 00:49:12;;;;;;;10.60;6.80;;;;;;;-1.92;98.95;102091.70;107714;1267;71553;-73
2022/12/06 00:51:40;;;;;;;12.80;7.20;;;;;;;-1.93;99.75;102092.71;107806;1269;72066;-72
2022/12/06 00:54:12;;;;;;;10.20;6.80;;;;;;;-1.98;99.55;102093.39;107642;1259;67719;-72
2022/12/06 00:56:41;;;;;;;11.40;6.90;;;;;;;-1.98;100.00;102090.48;107619;1263;71072;-71
2022/12/06 00:59:10;;;;;;;11.40;6.80;;;;;;;-1.97;99.71;102086.22;107706;1260;61055;-72
2022/12/06 01:01:40;;;;;;;10.20;6.80;;;;;;;-1.92;100.00;102085.89;107547;1263;60434;-73
2022/12/06 01:04:08;;;;;;;11.90;7.20;;;;;;;-1.99;100.00;102085.52;107688;1265;74083;-72
2022/12/06 01:06:37;;;;;;;10.80;7.20;;;;;;;-1.94;100.00;102081.27;107830;1258;70687;-71
2022/12/06 01:09:09;;;;;;;10.60;6.40;;;;;;;-2.03;100.00;102078.02;107736;1260;69627;-71
2022/12/06 01:11:37;;;;;;;10.90;6.40;;;;;;;-2.00;100.00;102078.02;107669;1261;74053;-72
2022/12/06 01:14:06;;;;;;;11.00;6.60;;;;;;;-2.07;99.96;102074.60;107673;1260;59966;-73
2022/12/06 01:16:35;;;;;;;12.90;7.50;;;;;;;-2.14;99.70;102071.00;107615;1266;59600;-73
2022/12/06 01:19:06;;;;;;;11.70;7.30;;;;;;;-2.01;100.00;102062.83;107599;1267;73476;-72
2022/12/06 01:21:35;;;;;;;11.10;7.00;;;;;;;-1.94;100.00;102061.64;107804;1269;70551;-71
2022/12/06 01:24:04;;;;;;;11.50;7.40;;;;;;;-1.98;100.00;102060.10;107674;1267;70325;-72
2022/12/06 01:26:35;;;;;;;12.00;6.90;;;;;;;-2.03;100.00;102053.44;107703;1258;71663;-74
2022/12/06 01:29:04;;;;;;;11.30;7.30;;;;;;;-2.02;100.00;102047.80;107595;1263;62025;-74
2022/12/06 01:31:33;;;;;;;10.30;6.90;;;;;;;-2.07;100.00;102037.22;107630;1263;60445;-74
2022/12/06 01:34:14;;;;;;;11.30;7.30;;;;;;;-1.99;100.00;102032.95;107635;1269;71732;-74
2022/12/06 01:36:43;;;;;;;13.60;7.70;;;;;;;-1.99;100.00;102029.02;107762;1260;72112;-74
2022/12/06 01:39:12;;;;;;;11.50;6.60;;;;;;;-1.88;100.00;102025.77;107553;1272;70761;-76
2022/12/06 01:41:41;;;;;;;11.00;7.90;;;;;;;-1.96;100.00;102026.98;107722;1260;72759;-73
2022/12/06 01:44:51;;;;;;;11.60;8.10;;;;;;;-1.86;100.00;102025.10;107724;1260;62284;-74
2022/12/06 01:47:36;;;;;;;12.50;7.30;;;;;;;-1.87;100.00;102024.76;107761;1261;62383;-74
2022/12/06 01:50:18;;;;;;;12.60;7.10;;;;;;;-1.98;100.00;102028.34;107645;1269;73332;-74
2022/12/06 01:53:04;;;;;;;12.20;6.90;;;;;;;-2.12;100.00;102031.23;107829;1258;71200;-73
2022/12/06 01:55:39;;;;;;;12.20;7.80;;;;;;;-2.05;100.00;102028.16;107709;1270;68576;-74
2022/12/06 01:58:17;;;;;;;12.10;7.30;;;;;;;-2.04;100.00;102026.27;107603;1262;73798;-74
2022/12/06 02:00:46;;;;;;;16.40;7.90;;;;;;;-2.06;100.00;102022.19;107628;1259;62731;-73
2022/12/06 02:03:27;;;;;;;12.60;7.00;;;;;;;-2.12;100.00;102017.75;107713;1269;59968;-75
2022/12/06 02:05:58;;;;;;;11.00;7.00;;;;;;;-2.15;100.00;102016.71;107526;1269;70918;-73
2022/12/06 02:08:28;;;;;;;12.70;8.10;;;;;;;-2.13;100.00;102013.65;107608;1270;72853;-73
2022/12/06 02:10:58;;;;;;;12.00;7.50;;;;;;;-2.09;100.00;102015.02;107617;1261;70080;-74
2022/12/06 02:13:28;;;;;;;12.00;7.30;;;;;;;-2.12;100.00;102018.77;107519;1264;74263;-71
2022/12/06 02:16:45;;;;;;;13.00;7.00;;;;;;;-2.23;100.00;102020.98;107593;1269;60885;-72
2022/12/06 02:19:31;;;;;;;11.50;7.00;;;;;;;-2.19;100.00;102016.20;107702;1261;61165;-72
2022/12/06 02:22:18;;;;;;;13.60;7.60;;;;;;;-2.22;100.00;102009.89;107694;1270;70600;-74
2022/12/06 02:25:27;;;;;;;10.70;6.80;;;;;;;-2.18;100.00;102008.70;107831;1258;71382;-73
2022/12/06 02:28:22;;;;;;;;;;;;;;;-2.24;100.00;102004.77;107802;1261;69028;-74
2022/12/06 02:30:58;;;;;;;12.90;7.60;;;;;;;-2.24;100.00;102001.34;107712;1260;71950;-74
2022/12/06 02:33:45;;;;;;;11.20;6.70;;;;;;;-2.20;100.00;101997.93;107651;1266;59623;-74
2022/12/06 02:36:25;;;;;;;11.90;7.10;;;;;;;-2.20;100.00;101998.63;107673;1266;58683;-73
2022/12/06 02:39:02;;;;;;;14.40;6.70;;;;;;;-2.17;100.00;101996.05;107610;1272;72790;-73
2022/12/06 02:42:01;;;;;;;11.00;7.10;;;;;;;-2.15;100.00;101998.95;107854;1257;72538;-74
2022/12/06 02:44:41;;;;;;;14.10;8.30;;;;;;;-2.12;100.00;101997.09;107778;1265;70696;-74
2022/12/06 02:47:12;;;;;;;9.40;5.80;;;;;;;-1.96;100.00;101993.51;107674;1268;72321;-73
2022/12/06 02:49:45;;;;;;;11.30;7.10;;;;;;;-2.00;100.00;101992.14;107684;1265;62031;-72
2022/12/06 02:52:15;;;;;;;15.60;8.00;;;;;;;-2.02;100.00;101990.27;107794;1260;61079;-72
2022/12/06 02:54:47;;;;;;;11.20;7.00;;;;;;;-2.02;100.00;101985.14;107570;1270;74062;-72
2022/12/06 02:57:32;;;;;;;14.70;7.60;;;;;;;-2.09;100.00;101984.63;107789;1261;71926;-72
2022/12/06 03:00:01;;;;;;;12.00;6.20;;;;;;;-1.99;100.00;101984.98;107711;1263;70853;-72
2022/12/06 03:02:33;;;;;;;12.70;7.80;;;;;;;-1.96;100.00;101982.75;107812;1260;71341;-73
2022/12/06 03:05:25;;;;;;;12.20;7.10;;;;;;;-1.95;100.00;101981.55;107776;1258;60439;-72
2022/12/06 03:07:56;;;;;;;14.60;8.70;;;;;;;-2.01;100.00;101975.58;107618;1273;60237;-72
2022/12/06 03:10:56;;;;;;;13.00;7.70;;;;;;;-2.02;100.00;101978.48;107549;1268;72051;-72
2022/12/06 03:14:06;;;;;;;14.10;7.70;;;;;;;-1.99;100.00;101977.98;107797;1264;72277;-73
2022/12/06 03:17:17;;;;;;;12.80;7.20;;;;;;;-2.03;100.00;101978.65;107522;1263;69017;-72
2022/12/06 03:19:56;;;;;;;10.80;7.50;;;;;;;-1.93;100.00;101973.02;107600;1264;73809;-71
2022/12/06 03:22:35;;;;;;;9.50;5.90;;;;;;;-1.92;100.00;101970.45;107638;1267;58987;-73
2022/12/06 03:25:09;;;;;;;13.00;8.20;;;;;;;-1.93;100.00;101963.98;107619;1266;59569;-74
2022/12/06 03:27:41;;;;;;;13.00;7.70;;;;;;;-1.96;100.00;101964.99;107636;1263;71565;-73
2022/12/06 03:30:12;;;;;;;14.10;8.30;;;;;;;-2.05;100.00;101961.07;107733;1258;72620;-74
2022/12/06 03:32:47;;;;;;;11.60;7.20;;;;;;;-2.07;100.00;101961.76;107607;1265;68829;-72
2022/12/06 03:35:31;;;;;;;11.90;7.40;;;;;;;-2.06;100.00;101960.39;107603;1266;74189;-73
2022/12/06 03:38:13;;;;;;;12.20;7.10;;;;;;;-2.05;100.00;101961.92;107771;1261;61904;-74
2022/12/06 03:40:48;;;;;;;12.60;7.00;;;;;;;-2.05;100.00;101958.68;107603;1272;58696;-74
2022/12/06 03:43:18;;;;;;;14.00;8.10;;;;;;;-2.01;100.00;101956.11;107584;1256;73510;-75
2022/12/06 03:46:12;;;;;;;13.50;6.70;;;;;;;-1.97;100.00;101957.66;107804;1259;70885;-73
2022/12/06 03:48:54;;;;;;;15.80;8.30;;;;;;;-2.00;100.00;101949.98;107690;1265;70512;-74
2022/12/06 03:51:28;;;;;;;12.20;7.80;;;;;;;-1.96;100.00;101955.27;107612;1263;72358;-73
2022/12/06 03:54:03;;;;;;;11.70;7.70;;;;;;;-1.85;100.00;101954.91;107672;1265;60454;-72
2022/12/06 03:56:35;;;;;;;12.70;8.00;;;;;;;-1.78;100.00;101955.75;107545;1263;61337;-73
2022/12/06 03:59:09;;;;;;;11.00;7.10;;;;;;;-1.63;100.00;101945.83;107608;1269;70442;-74
2022/12/06 04:01:38;;;;;;;14.30;7.00;;;;;;;-1.76;100.00;101939.86;107811;1261;72062;-74
2022/12/06 04:04:09;;;;;;;12.70;6.90;;;;;;;-1.83;100.00;101938.34;107716;1260;71070;-73
2022/12/06 04:06:38;;;;;;;12.20;7.50;;;;;;;-1.83;100.00;101934.58;107710;1262;71575;-71
2022/12/06 04:11:54;;;;;;;9.30;5.40;;;;;;;-1.70;100.00;101933.54;107840;1260;58641;-71
2022/12/06 04:14:22;;;;;;;7.30;4.50;;;;;;;-1.81;100.00;101922.97;107798;1267;73538;-71
2022/12/06 04:19:38;;;;;;;12.90;7.20;;;;;;;-1.86;100.00;101933.40;107755;1266;68560;-73
2022/12/06 04:24:53;;;;;;;10.00;6.00;;;;;;;-1.85;100.00;101932.20;107721;1266;59577;-69
2022/12/06 04:38:40;;;;;;;11.70;7.10;;;;;;;-1.87;100.00;101918.71;107745;1266;71857;-73
2022/12/06 04:43:40;;;;;;;18.10;10.20;;;;;;;-1.81;100.00;101918.02;107754;1260;59428;-73
2022/12/06 04:44:00;;;;;;;14.90;8.30;;;;;;;-1.71;100.00;101921.91;107709;1264;59044;-75
2022/12/06 04:46:29;;;;;;;14.00;7.30;;;;;;;-1.73;100.00;101924.48;107716;1256;73506;-76
2022/12/06 04:48:58;;;;;;;12.30;8.40;;;;;;;-1.69;100.00;101919.35;107820;1261;70700;-72
2022/12/06 04:51:27;;;;;;;14.80;8.20;;;;;;;-1.71;100.00;101921.92;107839;1260;70477;-72
2022/12/06 04:53:56;;;;;;;13.50;7.20;;;;;;;-1.68;100.00;101919.70;107842;1264;72341;-74
2022/12/06 04:56:25;;;;;;;15.60;8.60;;;;;;;-1.67;100.00;101921.57;107818;1255;61488;-75
2022/12/06 04:58:54;;;;;;;17.70;9.20;;;;;;;-1.63;100.00;101917.80;107704;1260;60834;-75
2022/12/06 05:01:22;;;;;;;29.50;18.10;;;;;;;-1.68;100.00;101914.57;106659;1257;1297656;-74
2022/12/06 05:03:51;;;;;;;14.40;8.50;;;;;;;-1.64;100.00;101913.36;107945;1264;70965;-79
2022/12/06 05:06:20;;;;;;;13.30;7.70;;;;;;;-1.67;100.00;101912.52;107726;1269;68542;-77
2022/12/06 05:08:49;;;;;;;11.60;7.50;;;;;;;-1.68;100.00;101908.24;107556;1270;71900;-80
2022/12/06 05:11:18;;;;;;;12.70;7.60;;;;;;;-1.69;100.00;101909.79;107699;1266;61053;-76
2022/12/06 05:13:46;;;;;;;12.30;7.30;;;;;;;-1.76;100.00;101906.56;107664;1260;61152;-76
2022/12/06 05:16:15;;;;;;;9.30;5.50;;;;;;;-1.78;100.00;101904.35;107607;1266;71257;-76
2022/12/06 05:18:44;;;;;;;12.50;7.30;;;;;;;-1.76;100.00;101902.63;107743;1270;72059;-75
2022/12/06 05:21:17;;;;;;;12.40;8.20;;;;;;;-1.76;100.00;101898.54;107676;1266;69037;-76
2022/12/06 05:23:46;;;;;;;10.60;7.50;;;;;;;-1.66;100.00;101895.26;107611;1263;71125;-76
2022/12/06 05:26:21;;;;;;;11.40;7.20;;;;;;;-1.63;100.00;101893.72;107626;1267;60574;-82
2022/12/06 05:28:50;;;;;;;10.10;6.80;;;;;;;-1.53;100.00;101892.48;107651;1266;60604;-80
2022/12/06 05:31:20;;;;;;;12.40;6.90;;;;;;;-1.63;100.00;101891.66;107548;1258;70672;-82
2022/12/06 05:33:50;;;;;;;10.60;6.80;;;;;;;-1.69;100.00;101895.27;107775;1262;69456;-82
2022/12/06 05:36:26;;;;;;;12.50;7.40;;;;;;;-1.54;100.00;101891.63;107561;1263;67616;-82
2022/12/06 05:38:55;;;;;;;12.30;7.60;;;;;;;-1.56;100.00;101892.84;107596;1271;73676;-81
2022/12/06 05:41:24;;;;;;;11.30;8.10;;;;;;;-1.55;100.00;101894.20;107581;1267;60303;-82
2022/12/06 05:43:53;;;;;;;12.10;7.30;;;;;;;-1.64;100.00;101891.34;107669;1266;59618;-82
2022/12/06 05:46:22;;;;;;;13.30;6.80;;;;;;;-1.65;100.00;101891.84;107626;1266;73551;-82
2022/12/06 05:48:51;;;;;;;9.30;5.50;;;;;;;-1.74;100.00;101893.05;107572;1268;72154;-83
2022/12/06 05:51:19;;;;;;;11.80;7.70;;;;;;;-1.74;100.00;101897.51;107709;1267;69499;-84
2022/12/06 05:53:48;;;;;;;10.60;7.40;;;;;;;-1.66;100.00;101899.88;107738;1266;71571;-82
2022/12/06 05:56:17;;;;;;;11.30;6.80;;;;;;;-1.52;100.00;101900.51;107583;1268;60765;-82
2022/12/06 05:58:46;;;;;;;12.10;6.80;;;;;;;-1.51;100.00;101904.95;107897;1269;60264;-82
2022/12/06 06:01:15;;;;;;;15.50;8.80;;;;;;;-1.65;100.00;101905.85;107946;1262;73976;-83
2022/12/06 06:03:44;;;;;;;13.00;7.60;;;;;;;-1.67;100.00;101907.73;107917;1264;69927;-80
2022/12/06 06:06:16;;;;;;;13.00;7.20;;;;;;;-1.75;100.00;101906.73;107747;1270;68597;-81
2022/12/06 06:08:45;;;;;;;13.50;7.20;;;;;;;-1.61;100.00;101904.30;107697;1265;71224;-83
2022/12/06 06:11:14;;;;;;;9.90;7.20;;;;;;;-1.63;100.00;101905.67;107723;1264;61474;-83
2022/12/06 06:13:43;;;;;;;11.20;6.80;;;;;;;-1.66;100.00;101900.39;107676;1258;59909;-82
2022/12/06 06:16:11;;;;;;;10.60;6.80;;;;;;;-1.66;100.00;101899.71;107646;1268;73214;-84
2022/12/06 06:18:40;;;;;;;10.80;6.00;;;;;;;-1.66;100.00;101899.70;107889;1261;70695;-82
2022/12/06 06:21:09;;;;;;;10.90;6.40;;;;;;;-1.67;100.00;101892.02;107784;1261;68052;-82
2022/12/06 06:23:38;;;;;;;10.10;6.40;;;;;;;-1.61;100.00;101894.73;107702;1266;73749;-82
2022/12/06 06:26:09;;;;;;;11.10;6.50;;;;;;;-1.71;100.00;101898.51;107711;1263;60878;-81
2022/12/06 06:28:37;;;;;;;9.60;6.60;;;;;;;-1.64;100.00;101898.84;107662;1264;60078;-83
2022/12/06 06:31:07;;;;;;;10.60;6.30;;;;;;;-1.64;100.00;101894.23;107655;1270;71690;-82
2022/12/06 06:33:36;;;;;;;11.60;7.10;;;;;;;-1.55;100.00;101895.23;107659;1261;69241;-82
2022/12/06 06:36:05;;;;;;;11.70;7.00;;;;;;;-1.55;100.00;101894.71;107686;1260;69408;-82
2022/12/06 06:38:34;;;;;;;12.10;7.20;;;;;;;-1.63;100.00;101890.47;107663;1261;71313;-83
2022/12/06 06:41:05;;;;;;;10.00;6.10;;;;;;;-1.59;100.00;101884.13;107618;1262;61258;-82
2022/12/06 06:43:50;;;;;;;9.60;6.30;;;;;;;-1.50;100.00;101878.80;107569;1255;58222;-84
2022/12/06 06:46:19;;;;;;;12.90;7.50;;;;;;;-1.49;100.00;101872.82;107470;1266;71911;-80
2022/12/06 06:48:48;;;;;;;10.90;6.90;;;;;;;-1.39;100.00;101873.64;107763;1261;69614;-80
2022/12/06 06:51:17;;;;;;;10.20;7.30;;;;;;;-1.40;100.00;101869.71;107808;1260;69510;-76
2022/12/06 06:53:45;;;;;;;10.90;6.90;;;;;;;-1.34;100.00;101867.30;107724;1272;73139;-82
2022/12/06 06:56:15;;;;;;;12.00;7.20;;;;;;;-1.37;100.00;101866.80;107743;1266;60447;-85
2022/12/06 06:58:43;;;;;;;8.00;5.00;;;;;;;-1.35;100.00;101867.98;107741;1261;60133;-81
2022/12/06 07:01:20;;;;;;;12.00;8.00;;;;;;;-1.33;100.00;101868.14;107691;1267;73045;-83
2022/12/06 07:03:52;;;;;;;10.70;7.10;;;;;;;-1.21;100.00;101866.71;107808;1258;71795;-83
2022/12/06 07:06:21;;;;;;;11.60;7.00;;;;;;;-1.20;100.00;101864.30;107855;1268;68619;-83
2022/12/06 07:08:50;;;;;;;10.90;7.70;;;;;;;-1.19;100.00;101861.57;107614;1269;70590;-81
2022/12/06 07:11:19;;;;;;;11.60;6.60;;;;;;;-1.13;100.00;101860.16;107822;1269;60443;-84
2022/12/06 07:13:48;;;;;;;11.90;7.10;;;;;;;-1.15;100.00;101857.78;107825;1266;58639;-82
2022/12/06 07:16:20;;;;;;;13.00;7.40;;;;;;;-1.14;100.00;101857.77;107896;1266;70739;-82
2022/12/06 07:18:49;;;;;;;11.30;6.40;;;;;;;-1.09;100.00;101855.20;107967;1260;72111;-83
2022/12/06 07:21:18;;;;;;;11.50;6.60;;;;;;;-1.03;100.00;101854.13;107676;1266;67810;-83
2022/12/06 07:23:47;;;;;;;12.00;7.10;;;;;;;-1.07;100.00;101852.61;107646;1260;71854;-82
2022/12/06 07:26:22;;;;;;;12.10;7.70;;;;;;;-1.06;100.00;101848.67;107670;1269;60512;-83
2022/12/06 07:28:50;;;;;;;11.60;7.10;;;;;;;-1.08;100.00;101847.14;107751;1267;58686;-83
2022/12/06 07:31:27;;;;;;;10.60;7.40;;;;;;;-0.99;100.00;101847.95;107818;1268;70799;-84
2022/12/06 07:33:59;;;;;;;16.60;11.60;;;;;;;-1.02;100.00;101839.92;107922;1261;71359;-81
2022/12/06 07:36:30;;;;;;;10.70;7.40;;;;;;;-0.96;100.00;101837.84;107803;1270;67653;-83
2022/12/06 07:39:00;;;;;;;12.10;6.60;;;;;;;-0.82;100.00;101835.52;107635;1270;73028;-82
2022/12/06 07:47:36;;;;;;;10.00;6.60;;;;;;;-1.06;100.00;101837.39;107786;1264;73462;-81
2022/12/06 07:50:09;;;;;;;11.60;6.60;;;;;;;-1.09;100.00;101838.09;107812;1265;71773;-83
2022/12/06 07:52:47;;;;;;;11.40;7.50;;;;;;;-1.16;100.00;101819.85;107894;1260;68339;-83
2022/12/06 07:55:17;;;;;;;12.40;7.80;;;;;;;-1.12;100.00;101831.27;107758;1266;71842;-82
2022/12/06 07:57:46;;;;;;;13.40;7.90;;;;;;;-1.11;100.00;101830.23;107749;1270;60513;-83
2022/12/06 08:00:15;;;;;;;12.90;8.00;;;;;;;-1.03;100.00;101830.70;107734;1272;60138;-83
2022/12/06 08:02:44;;;;;;;11.10;7.40;;;;;;;-0.87;100.00;101831.45;107735;1261;71180;-81
2022/12/06 08:05:13;;;;;;;11.80;7.50;;;;;;;-0.85;100.00;101831.09;107973;1261;69334;-83
2022/12/06 08:07:42;;;;;;;9.90;6.80;;;;;;;-0.92;100.00;101831.98;107809;1266;68568;-83
2022/12/06 08:10:11;;;;;;;12.00;7.40;;;;;;;-0.97;100.00;101830.65;107881;1261;73811;-84
2022/12/06 08:12:39;;;;;;;11.90;7.10;;;;;;;-0.88;100.00;101827.52;107749;1267;61363;-82
2022/12/06 08:15:11;;;;;;;13.00;7.90;;;;;;;-0.87;100.00;101823.58;107873;1264;60089;-84
2022/12/06 08:17:41;;;;;;;13.60;8.40;;;;;;;-0.72;100.00;101825.86;107766;1270;71528;-83
2022/12/06 08:20:11;;;;;;;12.90;7.60;;;;;;;-0.55;100.00;101828.46;107870;1270;71981;-81
2022/12/06 08:22:40;;;;;;;12.50;7.70;;;;;;;-0.64;100.00;101829.55;107835;1260;70415;-83
2022/12/06 08:25:09;;;;;;;9.60;7.40;;;;;;;-0.60;100.00;101829.35;107839;1264;73567;-83
2022/12/06 08:27:38;;;;;;;12.50;7.60;;;;;;;-0.61;100.00;101826.63;107781;1267;61600;-84
2022/12/06 08:30:07;;;;;;;12.70;7.20;;;;;;;-0.65;100.00;101827.16;107844;1263;61536;-84
2022/12/06 08:32:36;;;;;;;14.60;8.70;;;;;;;-0.61;100.00;101822.52;107864;1266;72115;-85
2022/12/06 08:35:05;;;;;;;14.20;8.80;;;;;;;-0.63;100.00;101818.60;107927;1262;69333;-84
2022/12/06 08:37:34;;;;;;;12.50;8.60;;;;;;;-0.52;100.00;101816.29;107687;1267;66611;-86
2022/12/06 08:40:04;;;;;;;14.70;8.10;;;;;;;-0.48;100.00;101817.62;107887;1267;71040;-81
2022/12/06 08:42:32;;;;;;;14.70;9.00;;;;;;;-0.42;100.00;101816.54;107841;1266;61384;-84
2022/12/06 08:45:01;;;;;;;16.00;9.80;;;;;;;-0.52;100.00;101811.83;107940;1261;60227;-83
2022/12/06 08:47:30;;;;;;;16.20;8.50;;;;;;;-0.45;100.00;101807.15;107809;1266;71624;-84
2022/12/06 08:49:59;;;;;;;15.30;8.80;;;;;;;-0.43;100.00;101803.38;107903;1262;70298;-84
2022/12/06 08:52:28;;;;;;;12.10;7.40;;;;;;;-0.42;100.00;101799.41;108057;1262;66844;-84
2022/12/06 08:54:57;;;;;;;11.10;6.90;;;;;;;-0.36;100.00;101792.34;107773;1267;70016;-84
2022/12/06 08:57:25;;;;;;;14.30;7.50;;;;;;;-0.40;100.00;101788.61;107842;1267;62007;-84
2022/12/06 08:59:54;;;;;;;12.00;8.40;;;;;;;-0.42;100.00;101785.71;107760;1265;59352;-85
2022/12/06 09:02:23;;;;;;;12.70;8.40;;;;;;;-0.39;100.00;101779.70;107856;1270;71564;-84
2022/12/06 09:04:52;;;;;;;10.30;8.00;;;;;;;-0.30;100.00;101774.14;107974;1262;72115;-83
2022/12/06 09:07:22;;;;;;;13.90;8.60;;;;;;;-0.16;100.00;101774.85;107726;1268;69119;-82
2022/12/06 09:09:54;;;;;;;11.30;8.10;;;;;;;-0.14;100.00;101771.23;107792;1270;72950;-83
2022/12/06 09:12:23;;;;;;;15.30;8.50;;;;;;;-0.11;99.99;101770.33;107767;1266;61312;-83
2022/12/06 09:14:52;;;;;;;14.30;9.10;;;;;;;-0.14;100.00;101764.38;107859;1266;60270;-83
2022/12/06 09:17:20;;;;;;;15.30;8.30;;;;;;;0.00;99.88;101761.64;107888;1256;72597;-83
2022/12/06 09:19:49;;;;;;;15.60;8.70;;;;;;;-0.08;99.92;101757.80;107895;1257;69899;-83
2022/12/06 09:22:18;;;;;;;13.40;8.10;;;;;;;-0.17;99.83;101751.56;107870;1261;70229;-84
2022/12/06 09:24:46;;;;;;;13.20;8.30;;;;;;;-0.11;99.80;101747.73;107769;1261;73420;-83
2022/12/06 09:27:17;;;;;;;13.90;8.30;;;;;;;-0.12;100.00;101742.10;107807;1260;59814;-84
2022/12/06 09:29:46;;;;;;;13.00;8.80;;;;;;;-0.07;100.00;101743.05;107893;1264;58782;-81
2022/12/06 09:32:15;;;;;;;13.00;7.90;;;;;;;0.08;100.00;101739.27;107803;1263;72114;-83
2022/12/06 09:34:43;;;;;;;15.20;9.40;;;;;;;0.10;100.00;101728.45;107731;1271;71514;-83
2022/12/06 09:37:13;;;;;;;14.10;9.10;;;;;;;0.09;99.65;101719.05;107726;1266;67054;-83
2022/12/06 09:40:13;;;;;;;17.10;9.30;;;;;;;0.12;99.92;101715.77;107700;1266;73056;-83
2022/12/06 09:42:51;;;;;;;15.30;9.00;;;;;;;0.15;99.98;101711.09;107641;1271;60187;-83
2022/12/06 09:45:39;;;;;;;13.40;9.00;;;;;;;0.10;99.92;101708.25;107685;1260;59374;-84
2022/12/06 09:48:22;;;;;;;30.40;9.90;;;;;;;0.13;100.00;101705.82;107632;1264;73454;-83
2022/12/06 09:51:17;;;;;;;11.60;8.20;;;;;;;0.13;99.99;101703.92;107828;1265;70326;-83
2022/12/06 09:53:55;;;;;;;12.10;8.50;;;;;;;0.26;100.00;101699.80;107586;1270;69171;-84
2022/12/06 09:56:33;;;;;;;14.00;8.80;;;;;;;0.30;99.95;101693.92;107937;1261;73420;-82
2022/12/06 09:59:49;;;;;;;13.10;8.80;;;;;;;0.31;100.00;101694.95;107902;1260;61409;-86
2022/12/06 10:02:31;;;;;;;13.70;8.40;;;;;;;0.23;99.08;101683.56;107711;1264;61558;-84
2022/12/06 10:05:05;;;;;;;15.70;9.10;;;;;;;0.21;99.92;101683.76;107691;1266;72967;-84
2022/12/06 10:07:47;;;;;;;12.50;8.80;;;;;;;0.34;99.97;101675.20;107900;1261;69112;-84
2022/12/06 10:10:43;;;;;;;12.40;8.20;;;;;;;0.35;99.81;101670.73;107682;1264;69720;-83
2022/12/06 10:13:42;;;;;;;13.60;8.90;;;;;;;0.34;99.70;101668.69;107732;1267;74199;-82
2022/12/06 10:16:18;;;;;;;15.00;8.90;;;;;;;0.44;99.91;101661.67;107706;1264;60057;-83
2022/12/06 10:19:08;;;;;;;17.90;11.30;;;;;;;0.48;100.00;101656.81;107651;1264;59250;-83
2022/12/06 10:21:56;;;;;;;13.10;8.80;;;;;;;0.51;99.88;101656.59;107734;1261;62285;-83
2022/12/06 10:25:11;;;;;;;13.10;8.80;;;;;;;0.41;100.00;101653.66;107677;1262;71429;-83
2022/12/06 10:27:50;;;;;;;15.50;8.80;;;;;;;0.33;99.27;101647.80;107757;1260;70616;-84
2022/12/06 10:30:19;;;;;;;15.70;10.00;;;;;;;0.35;99.66;101642.95;107635;1267;71410;-82
2022/12/06 10:33:11;;;;;;;15.40;9.50;;;;;;;0.40;99.52;101638.77;107736;1261;60454;-84
2022/12/06 10:35:54;;;;;;;14.60;9.50;;;;;;;0.56;99.82;101631.67;107648;1270;60298;-84
2022/12/06 10:38:38;;;;;;;13.40;9.30;;;;;;;0.58;99.81;101624.77;107582;1264;72619;-85
2022/12/06 10:41:20;;;;;;;13.40;9.90;;;;;;;0.63;99.97;101619.36;107986;1259;69356;-85
2022/12/06 10:44:04;;;;;;;13.30;9.60;;;;;;;0.74;99.90;101615.23;107897;1269;69892;-84
2022/12/06 10:47:03;;;;;;;13.40;9.10;;;;;;;0.73;99.18;101611.65;107777;1265;74158;-84
2022/12/06 10:50:00;;;;;;;15.50;9.40;;;;;;;0.64;98.55;101611.46;107886;1263;57602;-82
2022/12/06 10:53:09;;;;;;;15.90;10.70;;;;;;;0.65;99.64;101608.38;107810;1260;61259;-82
2022/12/06 10:55:45;;;;;;;17.40;10.30;;;;;;;0.65;99.73;101606.48;107769;1266;71323;-83
2022/12/06 10:58:34;;;;;;;14.90;10.30;;;;;;;0.74;99.54;101601.19;108007;1261;71402;-84
2022/12/06 11:01:28;;;;;;;13.70;9.00;;;;;;;0.79;99.45;101598.52;107885;1262;70469;-83
2022/12/06 11:04:15;;;;;;;18.80;10.90;;;;;;;0.85;99.37;101595.16;107891;1260;71496;-85
2022/12/06 11:07:13;;;;;;;17.00;10.10;;;;;;;0.88;99.03;101594.59;107697;1264;57815;-83
2022/12/06 11:09:51;;;;;;;14.00;9.50;;;;;;;0.91;99.73;101593.34;107902;1264;61157;-85
2022/12/06 11:12:33;;;;;;;15.00;10.00;;;;;;;0.92;98.63;101584.56;107719;1264;70699;-84
2022/12/06 11:15:42;;;;;;;14.70;9.90;;;;;;;1.04;98.98;101582.63;107984;1255;71354;-84
2022/12/06 11:18:15;;;;;;;14.50;9.40;;;;;;;0.96;97.24;101578.15;107787;1266;59625;-80
2022/12/06 11:20:51;;;;;;;13.40;8.70;;;;;;;0.94;97.90;101571.33;107910;1265;72992;-84
2022/12/06 11:23:22;;;;;;;13.50;8.90;;;;;;;0.85;97.99;101569.44;107864;1262;61632;-84
2022/12/06 11:26:10;;;;;;;14.20;9.50;;;;;;;0.91;98.65;101565.70;107819;1262;60496;-84
2022/12/06 11:28:44;;;;;;;18.30;9.70;;;;;;;0.93;97.76;101562.27;107784;1266;70987;-84
2022/12/06 11:31:33;;;;;;;12.00;8.10;;;;;;;0.93;97.35;101555.23;107933;1257;69501;-81
2022/12/06 11:34:17;;;;;;;12.70;8.60;;;;;;;0.75;97.96;101557.27;107708;1268;67862;-83
2022/12/06 11:36:50;;;;;;;15.30;8.90;;;;;;;0.69;98.44;101555.48;107723;1263;62371;-83
2022/12/06 11:39:29;;;;;;;12.80;8.70;;;;;;;0.69;98.43;101547.61;107658;1264;60592;-82
2022/12/06 11:42:03;;;;;;;13.90;8.70;;;;;;;0.86;100.00;101549.18;107736;1270;58051;-84
2022/12/06 11:45:23;;;;;;;14.60;9.30;;;;;;;0.87;98.14;101542.30;107753;1267;70772;-83
2022/12/06 11:48:01;;;;;;;11.90;9.00;;;;;;;0.87;98.63;101536.48;107824;1264;72215;-83
2022/12/06 11:50:32;;;;;;;14.00;8.80;;;;;;;0.87;98.60;101530.11;107782;1266;68870;-84
2022/12/06 11:53:09;;;;;;;11.50;8.50;;;;;;;0.83;97.99;101533.13;107679;1263;73578;-83
2022/12/06 11:55:45;;;;;;;11.40;8.70;;;;;;;0.73;97.65;101525.58;107678;1264;60027;-84
2022/12/06 11:58:32;;;;;;;13.30;8.60;;;;;;;0.84;99.62;101518.52;107901;1260;59518;-83
2022/12/06 12:01:09;;;;;;;14.70;8.70;;;;;;;0.74;98.38;101513.21;108016;1261;73196;-84
2022/12/06 12:03:42;;;;;;;12.70;7.90;;;;;;;0.73;98.88;101508.96;107914;1265;70450;-84
2022/12/06 12:06:28;;;;;;;12.80;7.90;;;;;;;0.73;98.90;101503.98;107810;1265;68615;-83
2022/12/06 12:09:04;;;;;;;11.30;8.10;;;;;;;0.84;99.17;101499.15;108046;1264;72922;-85